sensor_id;sensor_type;location;lat;lon;timestamp;pressure;altitude;pressure_sealevel;temperature;humidity
59110;BME280;44895;47.438;18.978;2023-07-02T00:00:11;99072.44;;;21.10;100.00
59110;BME280;44895;47.438;18.978;2023-07-02T00:03:14;99072.06;;;21.12;100.00
59110;BME280;44895;47.438;18.978;2023-07-02T00:06:19;99072.09;;;21.15;100.00
59110;BME280;44895;47.438;18.978;2023-07-02T00:09:23;99071.66;;;21.13;100.00
59110;BME280;44895;47.438;18.978;2023-07-02T00:12:27;99069.69;;;21.10;100.00
59110;BME280;44895;47.438;18.978;2023-07-02T00:15:30;99066.94;;;21.07;100.00
59110;BME280;44895;47.438;18.978;2023-07-02T00:18:34;99069.28;;;21.08;100.00
59110;BME280;44895;47.438;18.978;2023-07-02T00:21:39;99072.06;;;21.08;100.00
59110;BME280;44895;47.438;18.978;2023-07-02T00:24:44;99073.59;;;21.02;100.00
59110;BME280;44895;47.438;18.978;2023-07-02T00:27:49;99070.44;;;21.04;100.00
59110;BME280;44895;47.438;18.978;2023-07-02T00:30:53;99070.06;;;21.01;100.00
59110;BME280;44895;47.438;18.978;2023-07-02T00:33:57;99066.91;;;20.99;100.00
59110;BME280;44895;47.438;18.978;2023-07-02T00:37:02;99060.16;;;20.93;100.00
59110;BME280;44895;47.438;18.978;2023-07-02T00:40:07;99062.53;;;20.95;100.00
59110;BME280;44895;47.438;18.978;2023-07-02T00:43:12;99068.81;;;20.88;100.00
59110;BME280;44895;47.438;18.978;2023-07-02T00:46:17;99068.03;;;20.88;100.00
59110;BME280;44895;47.438;18.978;2023-07-02T00:49:24;99067.22;;;20.83;100.00
59110;BME280;44895;47.438;18.978;2023-07-02T00:52:27;99066.41;;;20.79;100.00
59110;BME280;44895;47.438;18.978;2023-07-02T00:55:31;99066.78;;;20.74;100.00
59110;BME280;44895;47.438;18.978;2023-07-02T00:58:39;99071.13;;;20.72;100.00
59110;BME280;44895;47.438;18.978;2023-07-02T01:01:44;99072.34;;;20.81;100.00
59110;BME280;44895;47.438;18.978;2023-07-02T01:04:53;99072.31;;;20.78;100.00
59110;BME280;44895;47.438;18.978;2023-07-02T01:08:03;99071.81;;;20.61;100.00
59110;BME280;44895;47.438;18.978;2023-07-02T01:11:07;99071.84;;;20.68;100.00
59110;BME280;44895;47.438;18.978;2023-07-02T01:14:14;99071.06;;;20.68;100.00
59110;BME280;44895;47.438;18.978;2023-07-02T01:17:19;99069.94;;;20.73;100.00
59110;BME280;44895;47.438;18.978;2023-07-02T01:20:24;99068.34;;;20.72;100.00
59110;BME280;44895;47.438;18.978;2023-07-02T01:23:28;99071.84;;;20.65;100.00
59110;BME280;44895;47.438;18.978;2023-07-02T01:26:33;99066.72;;;20.67;100.00
59110;BME280;44895;47.438;18.978;2023-07-02T01:29:37;99067.09;;;20.65;100.00
59110;BME280;44895;47.438;18.978;2023-07-02T01:32:41;99066.28;;;20.58;100.00
59110;BME280;44895;47.438;18.978;2023-07-02T01:35:45;99071.84;;;20.65;100.00
59110;BME280;44895;47.438;18.978;2023-07-02T01:38:49;99061.53;;;20.51;100.00
59110;BME280;44895;47.438;18.978;2023-07-02T01:41:55;99065.13;;;20.62;100.00
59110;BME280;44895;47.438;18.978;2023-07-02T01:44:59;99061.56;;;20.58;100.00
59110;BME280;44895;47.438;18.978;2023-07-02T01:48:05;99072.63;;;20.65;100.00
59110;BME280;44895;47.438;18.978;2023-07-02T01:51:09;99071.84;;;20.65;100.00
59110;BME280;44895;47.438;18.978;2023-07-02T01:54:13;99073.78;;;20.61;100.00
59110;BME280;44895;47.438;18.978;2023-07-02T01:57:18;99077.31;;;20.58;100.00
59110;BME280;44895;47.438;18.978;2023-07-02T02:00:22;99078.16;;;20.69;100.00
59110;BME280;44895;47.438;18.978;2023-07-02T02:03:27;99068.69;;;20.63;100.00
59110;BME280;44895;47.438;18.978;2023-07-02T02:06:32;99073.38;;;20.59;100.00
59110;BME280;44895;47.438;18.978;2023-07-02T02:09:36;99065.50;;;20.61;100.00
59110;BME280;44895;47.438;18.978;2023-07-02T02:12:41;99061.19;;;20.60;100.00
59110;BME280;44895;47.438;18.978;2023-07-02T02:15:45;99060.41;;;20.63;100.00
59110;BME280;44895;47.438;18.978;2023-07-02T02:18:49;99059.13;;;20.49;100.00
59110;BME280;44895;47.438;18.978;2023-07-02T02:21:57;99061.56;;;20.58;100.00
59110;BME280;44895;47.438;18.978;2023-07-02T02:25:01;99052.91;;;20.63;100.00
59110;BME280;44895;47.438;18.978;2023-07-02T02:28:06;99052.50;;;20.58;100.00
59110;BME280;44895;47.438;18.978;2023-07-02T02:31:10;99048.16;;;20.57;100.00
59110;BME280;44895;47.438;18.978;2023-07-02T02:34:14;99039.09;;;20.56;100.00
59110;BME280;44895;47.438;18.978;2023-07-02T02:37:20;99043.81;;;20.56;100.00
59110;BME280;44895;47.438;18.978;2023-07-02T02:40:26;99039.84;;;20.53;100.00
59110;BME280;44895;47.438;18.978;2023-07-02T02:43:30;99041.84;;;20.56;100.00
59110;BME280;44895;47.438;18.978;2023-07-02T02:46:34;99045.78;;;20.55;100.00
59110;BME280;44895;47.438;18.978;2023-07-02T02:49:38;99038.28;;;20.56;100.00
59110;BME280;44895;47.438;18.978;2023-07-02T02:52:43;99044.22;;;20.58;100.00
59110;BME280;44895;47.438;18.978;2023-07-02T02:55:47;99048.94;;;20.61;100.00
59110;BME280;44895;47.438;18.978;2023-07-02T02:58:51;99043.00;;;20.51;100.00
59110;BME280;44895;47.438;18.978;2023-07-02T03:01:56;99048.94;;;20.53;100.00
59110;BME280;44895;47.438;18.978;2023-07-02T03:04:59;99048.13;;;20.53;100.00
59110;BME280;44895;47.438;18.978;2023-07-02T03:08:08;99052.44;;;20.43;100.00
59110;BME280;44895;47.438;18.978;2023-07-02T03:11:12;99051.69;;;20.50;100.00
59110;BME280;44895;47.438;18.978;2023-07-02T03:14:16;99059.53;;;20.48;100.00
59110;BME280;44895;47.438;18.978;2023-07-02T03:17:21;99057.94;;;20.43;100.00
59110;BME280;44895;47.438;18.978;2023-07-02T03:20:25;99063.88;;;20.49;100.00
59110;BME280;44895;47.438;18.978;2023-07-02T03:23:29;99058.78;;;20.51;100.00
59110;BME280;44895;47.438;18.978;2023-07-02T03:26:32;99057.94;;;20.47;100.00
59110;BME280;44895;47.438;18.978;2023-07-02T03:29:36;99061.13;;;20.52;100.00
59110;BME280;44895;47.438;18.978;2023-07-02T03:32:42;99062.69;;;20.46;100.00
59110;BME280;44895;47.438;18.978;2023-07-02T03:35:46;99070.16;;;20.42;100.00
59110;BME280;44895;47.438;18.978;2023-07-02T03:38:50;99059.91;;;20.46;100.00
59110;BME280;44895;47.438;18.978;2023-07-02T03:41:54;99074.13;;;20.52;100.00
59110;BME280;44895;47.438;18.978;2023-07-02T03:44:58;99061.88;;;20.42;100.00
59110;BME280;44895;47.438;18.978;2023-07-02T03:48:02;99078.84;;;20.51;100.00
59110;BME280;44895;47.438;18.978;2023-07-02T03:51:06;99079.22;;;20.46;100.00
59110;BME280;44895;47.438;18.978;2023-07-02T03:54:10;99074.50;;;20.50;100.00
59110;BME280;44895;47.438;18.978;2023-07-02T03:57:17;99075.28;;;20.47;100.00
59110;BME280;44895;47.438;18.978;2023-07-02T04:00:21;99078.47;;;20.53;100.00
59110;BME280;44895;47.438;18.978;2023-07-02T04:03:25;99074.19;;;20.63;100.00
59110;BME280;44895;47.438;18.978;2023-07-02T04:06:30;99079.69;;;20.59;100.00
59110;BME280;44895;47.438;18.978;2023-07-02T04:09:34;99076.53;;;20.61;100.00
59110;BME280;44895;47.438;18.978;2023-07-02T04:12:37;99075.72;;;20.57;100.00
59110;BME280;44895;47.438;18.978;2023-07-02T04:15:42;99081.28;;;20.64;100.00
59110;BME280;44895;47.438;18.978;2023-07-02T04:18:46;99078.16;;;20.65;100.00
59110;BME280;44895;47.438;18.978;2023-07-02T04:21:50;99084.91;;;20.72;100.00
59110;BME280;44895;47.438;18.978;2023-07-02T04:24:53;99087.28;;;20.73;100.00
59110;BME280;44895;47.438;18.978;2023-07-02T04:27:58;99086.16;;;20.81;100.00
59110;BME280;44895;47.438;18.978;2023-07-02T04:31:02;99090.47;;;20.86;100.00
59110;BME280;44895;47.438;18.978;2023-07-02T04:34:06;99093.28;;;20.93;100.00
59110;BME280;44895;47.438;18.978;2023-07-02T04:37:10;99096.09;;;21.11;100.00
59110;BME280;44895;47.438;18.978;2023-07-02T04:40:14;99090.22;;;21.13;100.00
59110;BME280;44895;47.438;18.978;2023-07-02T04:43:18;99098.13;;;21.29;100.00
59110;BME280;44895;47.438;18.978;2023-07-02T04:46:22;99096.94;;;21.23;100.00
59110;BME280;44895;47.438;18.978;2023-07-02T04:49:26;99109.22;;;21.47;100.00
59110;BME280;44895;47.438;18.978;2023-07-02T04:52:31;99112.06;;;21.65;100.00
59110;BME280;44895;47.438;18.978;2023-07-02T04:55:35;99109.28;;;21.72;100.00
59110;BME280;44895;47.438;18.978;2023-07-02T04:58:39;99114.44;;;21.85;100.00
59110;BME280;44895;47.438;18.978;2023-07-02T05:01:44;99112.88;;;21.76;100.00
59110;BME280;44895;47.438;18.978;2023-07-02T05:04:49;99119.56;;;21.90;100.00
59110;BME280;44895;47.438;18.978;2023-07-02T05:07:54;99126.28;;;21.78;100.00
59110;BME280;44895;47.438;18.978;2023-07-02T05:10:58;99123.53;;;21.85;100.00
59110;BME280;44895;47.438;18.978;2023-07-02T05:14:02;99127.47;;;21.84;100.00
59110;BME280;44895;47.438;18.978;2023-07-02T05:17:06;99130.66;;;22.01;100.00
59110;BME280;44895;47.438;18.978;2023-07-02T05:20:10;99130.25;;;21.95;100.00
59110;BME280;44895;47.438;18.978;2023-07-02T05:23:14;99134.19;;;22.26;100.00
59110;BME280;44895;47.438;18.978;2023-07-02T05:26:19;99132.63;;;22.32;100.00
59110;BME280;44895;47.438;18.978;2023-07-02T05:29:23;99127.88;;;22.37;100.00
59110;BME280;44895;47.438;18.978;2023-07-02T05:32:27;99132.19;;;22.63;100.00
59110;BME280;44895;47.438;18.978;2023-07-02T05:35:31;99139.31;;;22.71;100.00
59110;BME280;44895;47.438;18.978;2023-07-02T05:38:35;99141.63;;;22.80;100.00
59110;BME280;44895;47.438;18.978;2023-07-02T05:41:39;99147.97;;;22.84;100.00
59110;BME280;44895;47.438;18.978;2023-07-02T05:44:43;99140.09;;;22.68;100.00
59110;BME280;44895;47.438;18.978;2023-07-02T05:47:46;99140.91;;;22.51;100.00
59110;BME280;44895;47.438;18.978;2023-07-02T05:50:50;99145.66;;;22.46;100.00
59110;BME280;44895;47.438;18.978;2023-07-02T05:53:54;99146.44;;;22.47;100.00
59110;BME280;44895;47.438;18.978;2023-07-02T05:56:59;99151.59;;;22.41;100.00
59110;BME280;44895;47.438;18.978;2023-07-02T06:00:04;99154.38;;;22.48;100.00
59110;BME280;44895;47.438;18.978;2023-07-02T06:03:18;99159.50;;;22.39;100.00
59110;BME280;44895;47.438;18.978;2023-07-02T06:06:24;99152.75;;;22.62;100.00
59110;BME280;44895;47.438;18.978;2023-07-02T06:09:28;99162.59;;;22.77;100.00
59110;BME280;44895;47.438;18.978;2023-07-02T06:12:33;99142.81;;;22.86;100.00
59110;BME280;44895;47.438;18.978;2023-07-02T06:15:36;99164.50;;;23.09;100.00
59110;BME280;44895;47.438;18.978;2023-07-02T06:18:40;99163.28;;;23.14;100.00
59110;BME280;44895;47.438;18.978;2023-07-02T06:21:45;99167.56;;;23.40;100.00
59110;BME280;44895;47.438;18.978;2023-07-02T06:24:49;99168.06;;;23.91;100.00
59110;BME280;44895;47.438;18.978;2023-07-02T06:27:53;99165.75;;;24.35;100.00
59110;BME280;44895;47.438;18.978;2023-07-02T06:30:59;99168.50;;;24.39;100.00
59110;BME280;44895;47.438;18.978;2023-07-02T06:34:03;99167.41;;;24.74;100.00
59110;BME280;44895;47.438;18.978;2023-07-02T06:37:07;99170.84;;;24.86;100.00
59110;BME280;44895;47.438;18.978;2023-07-02T06:40:11;99175.56;;;25.27;100.00
59110;BME280;44895;47.438;18.978;2023-07-02T06:43:15;99175.41;;;25.96;100.00
59110;BME280;44895;47.438;18.978;2023-07-02T06:46:19;99173.13;;;25.91;99.95
59110;BME280;44895;47.438;18.978;2023-07-02T06:49:23;99178.84;;;26.79;92.45
59110;BME280;44895;47.438;18.978;2023-07-02T06:52:27;99178.13;;;27.92;77.87
59110;BME280;44895;47.438;18.978;2023-07-02T06:55:31;99178.91;;;27.39;77.39
59110;BME280;44895;47.438;18.978;2023-07-02T06:58:36;99183.88;;;27.08;78.88
59110;BME280;44895;47.438;18.978;2023-07-02T07:01:41;99188.22;;;26.65;81.98
59110;BME280;44895;47.438;18.978;2023-07-02T07:04:45;99191.69;;;26.25;84.23
59110;BME280;44895;47.438;18.978;2023-07-02T07:07:50;99204.88;;;26.45;87.23
59110;BME280;44895;47.438;18.978;2023-07-02T07:10:55;99206.34;;;26.53;88.43
59110;BME280;44895;47.438;18.978;2023-07-02T07:13:59;99201.81;;;26.63;85.08
59110;BME280;44895;47.438;18.978;2023-07-02T07:17:03;99205.31;;;27.11;79.97
59110;BME280;44895;47.438;18.978;2023-07-02T07:20:07;99199.56;;;26.78;90.14
59110;BME280;44895;47.438;18.978;2023-07-02T07:23:12;99200.31;;;27.22;89.43
59110;BME280;44895;47.438;18.978;2023-07-02T07:26:16;99206.16;;;26.88;89.29
59110;BME280;44895;47.438;18.978;2023-07-02T07:29:21;99196.09;;;26.94;86.02
59110;BME280;44895;47.438;18.978;2023-07-02T07:32:26;99205.94;;;26.78;86.17
59110;BME280;44895;47.438;18.978;2023-07-02T07:35:30;99205.66;;;27.13;83.68
59110;BME280;44895;47.438;18.978;2023-07-02T07:38:34;99208.63;;;27.82;76.64
59110;BME280;44895;47.438;18.978;2023-07-02T07:41:37;99206.81;;;27.92;73.73
59110;BME280;44895;47.438;18.978;2023-07-02T07:44:41;99205.22;;;27.75;74.04
59110;BME280;44895;47.438;18.978;2023-07-02T07:47:45;99218.69;;;27.40;75.11
59110;BME280;44895;47.438;18.978;2023-07-02T07:50:49;99209.09;;;27.21;78.17
59110;BME280;44895;47.438;18.978;2023-07-02T07:53:54;99209.22;;;26.73;79.63
59110;BME280;44895;47.438;18.978;2023-07-02T07:56:58;99212.09;;;26.66;81.36
59110;BME280;44895;47.438;18.978;2023-07-02T08:00:03;99204.22;;;26.84;81.63
59110;BME280;44895;47.438;18.978;2023-07-02T08:03:20;99204.06;;;26.92;81.58
59110;BME280;44895;47.438;18.978;2023-07-02T08:06:24;99216.56;;;26.60;80.60
59110;BME280;44895;47.438;18.978;2023-07-02T08:09:28;99213.78;;;26.60;85.34
59110;BME280;44895;47.438;18.978;2023-07-02T08:12:31;99224.97;;;26.32;91.41
59110;BME280;44895;47.438;18.978;2023-07-02T08:15:37;99221.72;;;26.10;92.13
59110;BME280;44895;47.438;18.978;2023-07-02T08:18:41;99231.47;;;25.95;100.00
59110;BME280;44895;47.438;18.978;2023-07-02T08:21:45;99236.88;;;26.05;97.43
59110;BME280;44895;47.438;18.978;2023-07-02T08:24:49;99246.81;;;26.07;100.00
59110;BME280;44895;47.438;18.978;2023-07-02T08:27:54;99249.31;;;25.97;95.01
59110;BME280;44895;47.438;18.978;2023-07-02T08:30:58;99256.63;;;25.84;90.82
59110;BME280;44895;47.438;18.978;2023-07-02T08:34:03;99255.16;;;25.76;89.78
59110;BME280;44895;47.438;18.978;2023-07-02T08:37:07;99248.06;;;25.71;91.50
59110;BME280;44895;47.438;18.978;2023-07-02T08:40:19;99247.66;;;25.72;92.12
59110;BME280;44895;47.438;18.978;2023-07-02T08:43:25;99256.13;;;25.62;93.41
59110;BME280;44895;47.438;18.978;2023-07-02T08:46:30;99255.69;;;25.94;87.68
59110;BME280;44895;47.438;18.978;2023-07-02T08:49:33;99263.59;;;25.99;83.24
59110;BME280;44895;47.438;18.978;2023-07-02T08:52:37;99255.34;;;25.92;80.34
59110;BME280;44895;47.438;18.978;2023-07-02T08:55:42;99263.69;;;25.92;80.07
59110;BME280;44895;47.438;18.978;2023-07-02T08:58:46;99266.25;;;25.79;82.75
59110;BME280;44895;47.438;18.978;2023-07-02T09:01:52;99265.09;;;26.04;77.82
59110;BME280;44895;47.438;18.978;2023-07-02T09:05:02;99261.19;;;26.29;81.39
59110;BME280;44895;47.438;18.978;2023-07-02T09:08:06;99260.34;;;26.32;80.56
59110;BME280;44895;47.438;18.978;2023-07-02T09:11:12;99267.88;;;26.35;78.85
59110;BME280;44895;47.438;18.978;2023-07-02T09:14:24;99265.47;;;26.33;77.21
59110;BME280;44895;47.438;18.978;2023-07-02T09:17:32;99256.56;;;26.46;73.65
59110;BME280;44895;47.438;18.978;2023-07-02T09:20:36;99252.56;;;26.47;77.02
59110;BME280;44895;47.438;18.978;2023-07-02T09:23:40;99258.63;;;26.42;78.44
59110;BME280;44895;47.438;18.978;2023-07-02T09:26:49;99253.84;;;26.66;81.80
59110;BME280;44895;47.438;18.978;2023-07-02T09:29:54;99256.97;;;26.44;80.06
59110;BME280;44895;47.438;18.978;2023-07-02T09:33:06;99261.22;;;26.52;78.45
59110;BME280;44895;47.438;18.978;2023-07-02T09:36:12;99255.06;;;26.41;77.19
59110;BME280;44895;47.438;18.978;2023-07-02T09:39:24;99259.66;;;26.51;71.18
59110;BME280;44895;47.438;18.978;2023-07-02T09:42:29;99258.25;;;26.40;73.86
59110;BME280;44895;47.438;18.978;2023-07-02T09:45:33;99265.75;;;26.66;72.57
59110;BME280;44895;47.438;18.978;2023-07-02T09:48:37;99256.94;;;26.72;72.35
59110;BME280;44895;47.438;18.978;2023-07-02T09:51:42;99261.50;;;26.85;71.40
59110;BME280;44895;47.438;18.978;2023-07-02T09:54:48;99258.94;;;26.71;71.96
59110;BME280;44895;47.438;18.978;2023-07-02T09:57:52;99259.66;;;26.75;72.69
59110;BME280;44895;47.438;18.978;2023-07-02T10:00:56;99247.13;;;26.63;70.15
59110;BME280;44895;47.438;18.978;2023-07-02T10:04:17;99255.34;;;26.94;74.08
59110;BME280;44895;47.438;18.978;2023-07-02T10:07:29;99255.00;;;26.68;75.37
59110;BME280;44895;47.438;18.978;2023-07-02T10:10:34;99256.69;;;26.62;77.87
59110;BME280;44895;47.438;18.978;2023-07-02T10:13:40;99265.50;;;26.84;73.51
59110;BME280;44895;47.438;18.978;2023-07-02T10:16:54;99267.66;;;26.97;70.98
59110;BME280;44895;47.438;18.978;2023-07-02T10:20:00;99257.19;;;27.05;69.49
59110;BME280;44895;47.438;18.978;2023-07-02T10:23:06;99261.19;;;26.80;67.18
59110;BME280;44895;47.438;18.978;2023-07-02T10:26:16;99257.72;;;26.72;69.49
59110;BME280;44895;47.438;18.978;2023-07-02T10:29:23;99251.91;;;26.86;70.21
59110;BME280;44895;47.438;18.978;2023-07-02T10:32:29;99253.97;;;27.06;72.82
59110;BME280;44895;47.438;18.978;2023-07-02T10:35:33;99243.25;;;27.05;73.33
59110;BME280;44895;47.438;18.978;2023-07-02T10:38:38;99239.97;;;27.10;75.13
59110;BME280;44895;47.438;18.978;2023-07-02T10:41:42;99249.56;;;27.29;76.09
59110;BME280;44895;47.438;18.978;2023-07-02T10:44:52;99252.88;;;27.44;72.06
59110;BME280;44895;47.438;18.978;2023-07-02T10:47:57;99245.47;;;27.13;72.01
59110;BME280;44895;47.438;18.978;2023-07-02T10:51:11;99238.97;;;27.20;72.04
59110;BME280;44895;47.438;18.978;2023-07-02T10:54:15;99240.16;;;27.43;70.21
59110;BME280;44895;47.438;18.978;2023-07-02T10:57:19;99239.38;;;27.39;70.82
59110;BME280;44895;47.438;18.978;2023-07-02T11:00:25;99239.00;;;27.40;70.87
59110;BME280;44895;47.438;18.978;2023-07-02T11:03:29;99243.38;;;27.41;72.31
59110;BME280;44895;47.438;18.978;2023-07-02T11:06:34;99241.44;;;27.58;69.12
59110;BME280;44895;47.438;18.978;2023-07-02T11:09:38;99237.84;;;27.58;70.94
59110;BME280;44895;47.438;18.978;2023-07-02T11:12:42;99246.69;;;27.73;69.12
59110;BME280;44895;47.438;18.978;2023-07-02T11:15:46;99231.00;;;27.79;70.70
59110;BME280;44895;47.438;18.978;2023-07-02T11:19:05;99241.28;;;27.45;66.99
59110;BME280;44895;47.438;18.978;2023-07-02T11:22:09;99238.13;;;27.63;64.16
59110;BME280;44895;47.438;18.978;2023-07-02T11:25:18;99249.75;;;27.78;64.70
59110;BME280;44895;47.438;18.978;2023-07-02T11:28:24;99243.13;;;27.72;64.07
59110;BME280;44895;47.438;18.978;2023-07-02T11:31:28;99236.09;;;28.00;61.17
59110;BME280;44895;47.438;18.978;2023-07-02T11:34:32;99232.34;;;27.74;59.36
59110;BME280;44895;47.438;18.978;2023-07-02T11:37:36;99225.38;;;27.99;66.68
59110;BME280;44895;47.438;18.978;2023-07-02T11:40:40;99225.88;;;28.14;65.21
59110;BME280;44895;47.438;18.978;2023-07-02T11:43:44;99227.63;;;28.24;64.21
59110;BME280;44895;47.438;18.978;2023-07-02T11:46:48;99219.34;;;28.21;65.46
59110;BME280;44895;47.438;18.978;2023-07-02T11:49:53;99234.94;;;28.18;64.05
59110;BME280;44895;47.438;18.978;2023-07-02T11:52:58;99227.00;;;28.17;64.01
59110;BME280;44895;47.438;18.978;2023-07-02T11:56:03;99225.53;;;28.28;65.98
59110;BME280;44895;47.438;18.978;2023-07-02T11:59:06;99226.66;;;28.31;64.46
59110;BME280;44895;47.438;18.978;2023-07-02T12:02:11;99229.56;;;28.27;60.88
59110;BME280;44895;47.438;18.978;2023-07-02T12:05:15;99230.78;;;28.26;62.99
59110;BME280;44895;47.438;18.978;2023-07-02T12:08:19;99233.38;;;28.17;60.29
59110;BME280;44895;47.438;18.978;2023-07-02T12:11:23;99232.84;;;28.22;63.03
59110;BME280;44895;47.438;18.978;2023-07-02T12:14:27;99223.78;;;28.18;65.09
59110;BME280;44895;47.438;18.978;2023-07-02T12:17:31;99230.94;;;28.19;62.73
59110;BME280;44895;47.438;18.978;2023-07-02T12:20:35;99227.72;;;28.21;62.62
59110;BME280;44895;47.438;18.978;2023-07-02T12:23:39;99227.09;;;28.29;62.69
59110;BME280;44895;47.438;18.978;2023-07-02T12:26:43;99227.16;;;28.09;60.37
59110;BME280;44895;47.438;18.978;2023-07-02T12:29:47;99228.91;;;28.03;62.42
59110;BME280;44895;47.438;18.978;2023-07-02T12:32:52;99231.69;;;28.03;61.85
59110;BME280;44895;47.438;18.978;2023-07-02T12:35:56;99236.81;;;27.88;61.86
59110;BME280;44895;47.438;18.978;2023-07-02T12:39:01;99213.78;;;27.84;63.50
59110;BME280;44895;47.438;18.978;2023-07-02T12:42:05;99225.31;;;28.03;63.81
59110;BME280;44895;47.438;18.978;2023-07-02T12:45:11;99220.94;;;28.02;63.21
59110;BME280;44895;47.438;18.978;2023-07-02T12:48:15;99239.50;;;27.92;62.03
59110;BME280;44895;47.438;18.978;2023-07-02T12:51:19;99233.59;;;27.90;59.76
59110;BME280;44895;47.438;18.978;2023-07-02T12:54:23;99231.03;;;27.95;59.70
59110;BME280;44895;47.438;18.978;2023-07-02T12:57:28;99223.13;;;27.94;60.14
59110;BME280;44895;47.438;18.978;2023-07-02T13:00:32;99224.41;;;27.89;60.96
59110;BME280;44895;47.438;18.978;2023-07-02T13:03:37;99219.81;;;27.99;62.51
59110;BME280;44895;47.438;18.978;2023-07-02T13:06:42;99225.75;;;28.01;60.72
59110;BME280;44895;47.438;18.978;2023-07-02T13:09:48;99223.69;;;28.05;61.76
59110;BME280;44895;47.438;18.978;2023-07-02T13:12:53;99227.94;;;27.93;59.66
59110;BME280;44895;47.438;18.978;2023-07-02T13:15:57;99231.41;;;27.97;59.05
59110;BME280;44895;47.438;18.978;2023-07-02T13:19:02;99228.31;;;27.75;63.48
59110;BME280;44895;47.438;18.978;2023-07-02T13:22:06;99229.44;;;27.41;62.83
59110;BME280;44895;47.438;18.978;2023-07-02T13:25:11;99238.81;;;27.67;61.54
59110;BME280;44895;47.438;18.978;2023-07-02T13:28:15;99228.44;;;27.88;61.52
59110;BME280;44895;47.438;18.978;2023-07-02T13:31:20;99234.03;;;27.88;60.16
59110;BME280;44895;47.438;18.978;2023-07-02T13:34:24;99238.78;;;27.88;60.73
59110;BME280;44895;47.438;18.978;2023-07-02T13:37:29;99229.53;;;27.74;57.91
59110;BME280;44895;47.438;18.978;2023-07-02T13:40:34;99223.91;;;27.58;56.14
59110;BME280;44895;47.438;18.978;2023-07-02T13:43:39;99233.00;;;27.42;57.63
59110;BME280;44895;47.438;18.978;2023-07-02T13:46:44;99217.97;;;27.56;57.93
59110;BME280;44895;47.438;18.978;2023-07-02T13:49:49;99225.25;;;27.70;58.01
59110;BME280;44895;47.438;18.978;2023-07-02T13:52:53;99226.22;;;27.43;56.21
59110;BME280;44895;47.438;18.978;2023-07-02T13:55:58;99224.25;;;27.60;57.17
59110;BME280;44895;47.438;18.978;2023-07-02T13:59:02;99230.31;;;27.75;58.35
59110;BME280;44895;47.438;18.978;2023-07-02T14:02:07;99226.53;;;27.65;57.94
59110;BME280;44895;47.438;18.978;2023-07-02T14:05:13;99223.97;;;27.14;59.58
59110;BME280;44895;47.438;18.978;2023-07-02T14:08:17;99228.59;;;27.21;60.38
59110;BME280;44895;47.438;18.978;2023-07-02T14:11:22;99237.44;;;27.39;60.12
59110;BME280;44895;47.438;18.978;2023-07-02T14:14:27;99231.03;;;27.39;59.88
59110;BME280;44895;47.438;18.978;2023-07-02T14:17:32;99239.28;;;27.46;59.48
59110;BME280;44895;47.438;18.978;2023-07-02T14:20:39;99227.88;;;27.40;60.90
59110;BME280;44895;47.438;18.978;2023-07-02T14:23:44;99236.25;;;27.37;61.20
59110;BME280;44895;47.438;18.978;2023-07-02T14:26:48;99236.06;;;27.47;61.84
59110;BME280;44895;47.438;18.978;2023-07-02T14:29:53;99236.69;;;27.55;58.91
59110;BME280;44895;47.438;18.978;2023-07-02T14:32:57;99233.38;;;27.44;59.46
59110;BME280;44895;47.438;18.978;2023-07-02T14:36:02;99230.59;;;27.44;58.55
59110;BME280;44895;47.438;18.978;2023-07-02T14:39:06;99238.44;;;27.49;58.43
59110;BME280;44895;47.438;18.978;2023-07-02T14:42:11;99235.28;;;27.47;59.99
59110;BME280;44895;47.438;18.978;2023-07-02T14:45:15;99244.06;;;27.25;60.92
59110;BME280;44895;47.438;18.978;2023-07-02T14:48:20;99245.13;;;27.31;61.63
59110;BME280;44895;47.438;18.978;2023-07-02T14:51:25;99230.69;;;27.16;61.84
59110;BME280;44895;47.438;18.978;2023-07-02T14:54:29;99250.75;;;27.08;64.05
59110;BME280;44895;47.438;18.978;2023-07-02T14:57:33;99247.69;;;27.22;64.24
59110;BME280;44895;47.438;18.978;2023-07-02T15:01:03;99249.91;;;27.31;64.12
59110;BME280;44895;47.438;18.978;2023-07-02T15:04:08;99243.69;;;27.23;63.15
59110;BME280;44895;47.438;18.978;2023-07-02T15:07:12;99246.09;;;27.01;63.87
59110;BME280;44895;47.438;18.978;2023-07-02T15:10:16;99241.69;;;26.80;66.34
59110;BME280;44895;47.438;18.978;2023-07-02T15:13:20;99248.19;;;26.73;66.89
59110;BME280;44895;47.438;18.978;2023-07-02T15:16:25;99253.69;;;26.77;69.38
59110;BME280;44895;47.438;18.978;2023-07-02T15:19:29;99247.78;;;26.71;67.91
59110;BME280;44895;47.438;18.978;2023-07-02T15:22:33;99247.50;;;26.65;69.22
59110;BME280;44895;47.438;18.978;2023-07-02T15:25:37;99250.38;;;26.85;65.97
59110;BME280;44895;47.438;18.978;2023-07-02T15:28:41;99240.56;;;26.77;62.62
59110;BME280;44895;47.438;18.978;2023-07-02T15:31:45;99240.97;;;26.76;61.70
59110;BME280;44895;47.438;18.978;2023-07-02T15:34:49;99244.06;;;26.81;61.47
59110;BME280;44895;47.438;18.978;2023-07-02T15:37:53;99251.13;;;26.86;61.30
59110;BME280;44895;47.438;18.978;2023-07-02T15:41:12;99247.22;;;26.83;60.08
59110;BME280;44895;47.438;18.978;2023-07-02T15:44:17;99259.66;;;26.75;60.26
59110;BME280;44895;47.438;18.978;2023-07-02T15:47:23;99256.94;;;26.72;60.23
59110;BME280;44895;47.438;18.978;2023-07-02T15:50:27;99261.69;;;26.75;62.24
59110;BME280;44895;47.438;18.978;2023-07-02T15:53:32;99260.09;;;26.74;61.38
59110;BME280;44895;47.438;18.978;2023-07-02T15:56:37;99264.06;;;26.73;60.68
59110;BME280;44895;47.438;18.978;2023-07-02T15:59:41;99259.34;;;26.69;61.30